sensor_id;sensor_type;location;lat;lon;timestamp;P1;durP1;ratioP1;P2;durP2;ratioP2
25481;SDS011;13395;50.752;4.268;2023-08-12T00:00:16;7.78;;;5.57;;
25481;SDS011;13395;50.752;4.268;2023-08-12T00:02:42;14.32;;;5.22;;
25481;SDS011;13395;50.752;4.268;2023-08-12T00:05:09;12.35;;;5.32;;
25481;SDS011;13395;50.752;4.268;2023-08-12T00:07:36;11.50;;;5.43;;
25481;SDS011;13395;50.752;4.268;2023-08-12T00:10:02;11.13;;;5.18;;
25481;SDS011;13395;50.752;4.268;2023-08-12T00:12:29;8.18;;;5.25;;
25481;SDS011;13395;50.752;4.268;2023-08-12T00:14:59;13.45;;;5.88;;
25481;SDS011;13395;50.752;4.268;2023-08-12T00:17:25;14.00;;;6.18;;
25481;SDS011;13395;50.752;4.268;2023-08-12T00:19:51;9.57;;;5.65;;
25481;SDS011;13395;50.752;4.268;2023-08-12T00:22:17;8.55;;;5.93;;
25481;SDS011;13395;50.752;4.268;2023-08-12T00:24:42;9.25;;;5.70;;
25481;SDS011;13395;50.752;4.268;2023-08-12T00:27:09;12.65;;;6.47;;
25481;SDS011;13395;50.752;4.268;2023-08-12T00:29:35;11.65;;;5.85;;
25481;SDS011;13395;50.752;4.268;2023-08-12T00:32:01;10.23;;;6.57;;
25481;SDS011;13395;50.752;4.268;2023-08-12T00:34:27;11.02;;;6.05;;
25481;SDS011;13395;50.752;4.268;2023-08-12T00:36:52;9.38;;;6.07;;
25481;SDS011;13395;50.752;4.268;2023-08-12T00:39:18;8.35;;;5.88;;
25481;SDS011;13395;50.752;4.268;2023-08-12T00:41:44;14.15;;;5.72;;
25481;SDS011;13395;50.752;4.268;2023-08-12T00:44:09;10.80;;;6.60;;
25481;SDS011;13395;50.752;4.268;2023-08-12T00:46:36;9.35;;;5.70;;
25481;SDS011;13395;50.752;4.268;2023-08-12T00:49:03;9.93;;;5.63;;
25481;SDS011;13395;50.752;4.268;2023-08-12T00:51:29;14.68;;;6.95;;
25481;SDS011;13395;50.752;4.268;2023-08-12T00:53:56;10.63;;;6.15;;
25481;SDS011;13395;50.752;4.268;2023-08-12T00:56:23;10.75;;;6.38;;
25481;SDS011;13395;50.752;4.268;2023-08-12T00:58:50;8.73;;;6.28;;
25481;SDS011;13395;50.752;4.268;2023-08-12T01:01:17;13.43;;;6.25;;
25481;SDS011;13395;50.752;4.268;2023-08-12T01:03:43;13.65;;;6.38;;
25481;SDS011;13395;50.752;4.268;2023-08-12T01:06:08;14.07;;;6.40;;
25481;SDS011;13395;50.752;4.268;2023-08-12T01:08:34;14.15;;;7.35;;
25481;SDS011;13395;50.752;4.268;2023-08-12T01:14:27;17.25;;;6.75;;
25481;SDS011;13395;50.752;4.268;2023-08-12T01:16:54;12.50;;;7.30;;
25481;SDS011;13395;50.752;4.268;2023-08-12T01:19:37;15.25;;;6.65;;
25481;SDS011;13395;50.752;4.268;2023-08-12T01:22:04;16.70;;;7.43;;
25481;SDS011;13395;50.752;4.268;2023-08-12T01:24:34;12.57;;;6.75;;
25481;SDS011;13395;50.752;4.268;2023-08-12T01:27:00;19.08;;;7.55;;
25481;SDS011;13395;50.752;4.268;2023-08-12T01:29:26;10.10;;;7.70;;
25481;SDS011;13395;50.752;4.268;2023-08-12T01:31:55;15.80;;;7.75;;
25481;SDS011;13395;50.752;4.268;2023-08-12T01:37:01;14.15;;;6.90;;
25481;SDS011;13395;50.752;4.268;2023-08-12T01:39:30;12.93;;;7.03;;
25481;SDS011;13395;50.752;4.268;2023-08-12T01:41:57;12.82;;;7.20;;
25481;SDS011;13395;50.752;4.268;2023-08-12T01:44:23;10.82;;;7.05;;
25481;SDS011;13395;50.752;4.268;2023-08-12T01:46:49;6.95;;;6.10;;
25481;SDS011;13395;50.752;4.268;2023-08-12T01:49:15;11.88;;;6.45;;
25481;SDS011;13395;50.752;4.268;2023-08-12T01:51:40;14.90;;;7.22;;
25481;SDS011;13395;50.752;4.268;2023-08-12T01:54:06;16.63;;;7.03;;
25481;SDS011;13395;50.752;4.268;2023-08-12T01:56:32;15.32;;;7.15;;
25481;SDS011;13395;50.752;4.268;2023-08-12T01:58:57;15.10;;;7.25;;
25481;SDS011;13395;50.752;4.268;2023-08-12T02:01:23;12.35;;;7.47;;
25481;SDS011;13395;50.752;4.268;2023-08-12T02:03:48;18.75;;;9.13;;
25481;SDS011;13395;50.752;4.268;2023-08-12T02:06:14;12.63;;;7.95;;
25481;SDS011;13395;50.752;4.268;2023-08-12T02:08:39;17.13;;;8.18;;
25481;SDS011;13395;50.752;4.268;2023-08-12T02:11:05;15.93;;;7.82;;
25481;SDS011;13395;50.752;4.268;2023-08-12T02:13:31;16.88;;;8.48;;
25481;SDS011;13395;50.752;4.268;2023-08-12T02:15:56;20.33;;;7.78;;
25481;SDS011;13395;50.752;4.268;2023-08-12T02:18:22;14.82;;;8.85;;
25481;SDS011;13395;50.752;4.268;2023-08-12T02:20:47;17.23;;;8.10;;
25481;SDS011;13395;50.752;4.268;2023-08-12T02:23:13;15.95;;;8.00;;
25481;SDS011;13395;50.752;4.268;2023-08-12T02:25:39;10.50;;;7.50;;
25481;SDS011;13395;50.752;4.268;2023-08-12T02:28:05;12.63;;;8.32;;
25481;SDS011;13395;50.752;4.268;2023-08-12T02:30:30;18.52;;;8.10;;
25481;SDS011;13395;50.752;4.268;2023-08-12T02:32:56;14.68;;;7.00;;
25481;SDS011;13395;50.752;4.268;2023-08-12T02:35:22;19.77;;;8.77;;
25481;SDS011;13395;50.752;4.268;2023-08-12T02:37:48;17.45;;;8.75;;
25481;SDS011;13395;50.752;4.268;2023-08-12T02:40:13;17.77;;;9.05;;
25481;SDS011;13395;50.752;4.268;2023-08-12T02:42:39;14.75;;;8.95;;
25481;SDS011;13395;50.752;4.268;2023-08-12T02:45:05;21.40;;;8.88;;
25481;SDS011;13395;50.752;4.268;2023-08-12T02:47:31;15.90;;;8.32;;
25481;SDS011;13395;50.752;4.268;2023-08-12T02:49:56;12.82;;;8.48;;
25481;SDS011;13395;50.752;4.268;2023-08-12T02:52:22;18.60;;;9.27;;
25481;SDS011;13395;50.752;4.268;2023-08-12T02:54:48;14.15;;;9.10;;
25481;SDS011;13395;50.752;4.268;2023-08-12T02:57:13;16.27;;;9.13;;
25481;SDS011;13395;50.752;4.268;2023-08-12T02:59:39;10.13;;;8.25;;
25481;SDS011;13395;50.752;4.268;2023-08-12T03:02:05;12.85;;;8.73;;
25481;SDS011;13395;50.752;4.268;2023-08-12T03:04:30;15.63;;;9.13;;
25481;SDS011;13395;50.752;4.268;2023-08-12T03:06:56;16.20;;;9.60;;
25481;SDS011;13395;50.752;4.268;2023-08-12T03:09:21;13.40;;;9.30;;
25481;SDS011;13395;50.752;4.268;2023-08-12T03:11:47;16.45;;;9.98;;
25481;SDS011;13395;50.752;4.268;2023-08-12T03:14:12;18.60;;;10.15;;
25481;SDS011;13395;50.752;4.268;2023-08-12T03:16:38;16.40;;;9.32;;
25481;SDS011;13395;50.752;4.268;2023-08-12T03:19:04;12.75;;;10.07;;
25481;SDS011;13395;50.752;4.268;2023-08-12T03:21:29;16.63;;;10.15;;
25481;SDS011;13395;50.752;4.268;2023-08-12T03:23:55;20.15;;;10.82;;
25481;SDS011;13395;50.752;4.268;2023-08-12T03:26:20;12.40;;;10.50;;
25481;SDS011;13395;50.752;4.268;2023-08-12T03:28:46;13.40;;;9.30;;
25481;SDS011;13395;50.752;4.268;2023-08-12T03:31:11;22.77;;;10.00;;
25481;SDS011;13395;50.752;4.268;2023-08-12T03:33:37;13.07;;;9.35;;
25481;SDS011;13395;50.752;4.268;2023-08-12T03:36:02;16.35;;;10.05;;
25481;SDS011;13395;50.752;4.268;2023-08-12T03:38:28;19.20;;;9.90;;
25481;SDS011;13395;50.752;4.268;2023-08-12T03:40:54;13.27;;;10.80;;
25481;SDS011;13395;50.752;4.268;2023-08-12T03:43:20;13.50;;;9.85;;
25481;SDS011;13395;50.752;4.268;2023-08-12T03:45:45;13.77;;;9.52;;
25481;SDS011;13395;50.752;4.268;2023-08-12T03:48:12;22.52;;;8.82;;
25481;SDS011;13395;50.752;4.268;2023-08-12T03:50:38;15.27;;;10.13;;
25481;SDS011;13395;50.752;4.268;2023-08-12T03:53:04;11.00;;;8.15;;
25481;SDS011;13395;50.752;4.268;2023-08-12T03:55:33;16.35;;;8.10;;
25481;SDS011;13395;50.752;4.268;2023-08-12T03:57:59;9.82;;;8.82;;
25481;SDS011;13395;50.752;4.268;2023-08-12T04:00:25;13.20;;;8.32;;
25481;SDS011;13395;50.752;4.268;2023-08-12T04:02:51;8.02;;;6.88;;
25481;SDS011;13395;50.752;4.268;2023-08-12T04:05:17;9.15;;;7.32;;
25481;SDS011;13395;50.752;4.268;2023-08-12T04:07:42;12.80;;;8.10;;
25481;SDS011;13395;50.752;4.268;2023-08-12T04:10:08;11.13;;;7.40;;
25481;SDS011;13395;50.752;4.268;2023-08-12T04:12:34;8.63;;;7.22;;
25481;SDS011;13395;50.752;4.268;2023-08-12T04:15:00;11.88;;;6.43;;
25481;SDS011;13395;50.752;4.268;2023-08-12T04:17:28;10.80;;;6.78;;
25481;SDS011;13395;50.752;4.268;2023-08-12T04:19:54;11.63;;;6.93;;
25481;SDS011;13395;50.752;4.268;2023-08-12T04:22:19;8.75;;;5.90;;
25481;SDS011;13395;50.752;4.268;2023-08-12T04:24:45;11.60;;;6.50;;
25481;SDS011;13395;50.752;4.268;2023-08-12T04:27:10;8.45;;;5.45;;
25481;SDS011;13395;50.752;4.268;2023-08-12T04:29:36;12.10;;;5.63;;
25481;SDS011;13395;50.752;4.268;2023-08-12T04:32:02;9.27;;;5.35;;
25481;SDS011;13395;50.752;4.268;2023-08-12T04:34:27;6.72;;;4.50;;
25481;SDS011;13395;50.752;4.268;2023-08-12T04:36:53;6.25;;;4.43;;
25481;SDS011;13395;50.752;4.268;2023-08-12T04:39:18;9.70;;;5.32;;
25481;SDS011;13395;50.752;4.268;2023-08-12T04:41:44;5.72;;;4.85;;
25481;SDS011;13395;50.752;4.268;2023-08-12T04:44:09;11.05;;;5.40;;
25481;SDS011;13395;50.752;4.268;2023-08-12T04:46:35;5.68;;;4.63;;
25481;SDS011;13395;50.752;4.268;2023-08-12T04:49:00;5.18;;;4.53;;
25481;SDS011;13395;50.752;4.268;2023-08-12T04:51:26;7.13;;;5.10;;
25481;SDS011;13395;50.752;4.268;2023-08-12T04:53:52;5.95;;;5.35;;
25481;SDS011;13395;50.752;4.268;2023-08-12T04:56:18;7.20;;;6.50;;
25481;SDS011;13395;50.752;4.268;2023-08-12T04:58:43;8.55;;;7.40;;
25481;SDS011;13395;50.752;4.268;2023-08-12T05:01:09;10.77;;;7.63;;
25481;SDS011;13395;50.752;4.268;2023-08-12T05:03:34;6.85;;;6.22;;
25481;SDS011;13395;50.752;4.268;2023-08-12T05:06:00;9.75;;;7.05;;
25481;SDS011;13395;50.752;4.268;2023-08-12T05:08:26;21.52;;;8.32;;
25481;SDS011;13395;50.752;4.268;2023-08-12T05:10:51;13.07;;;9.07;;
25481;SDS011;13395;50.752;4.268;2023-08-12T05:13:17;14.88;;;9.02;;
25481;SDS011;13395;50.752;4.268;2023-08-12T05:15:46;10.52;;;9.00;;
25481;SDS011;13395;50.752;4.268;2023-08-12T05:18:12;10.57;;;9.18;;
25481;SDS011;13395;50.752;4.268;2023-08-12T05:20:39;10.95;;;9.70;;
25481;SDS011;13395;50.752;4.268;2023-08-12T05:23:08;12.88;;;10.18;;
25481;SDS011;13395;50.752;4.268;2023-08-12T05:25:34;13.98;;;9.63;;
25481;SDS011;13395;50.752;4.268;2023-08-12T05:27:59;11.35;;;9.95;;
25481;SDS011;13395;50.752;4.268;2023-08-12T05:30:25;10.60;;;9.40;;
25481;SDS011;13395;50.752;4.268;2023-08-12T05:32:50;15.15;;;10.23;;
25481;SDS011;13395;50.752;4.268;2023-08-12T05:35:16;12.70;;;8.95;;
25481;SDS011;13395;50.752;4.268;2023-08-12T05:37:41;11.52;;;10.23;;
25481;SDS011;13395;50.752;4.268;2023-08-12T05:40:10;11.57;;;9.98;;
25481;SDS011;13395;50.752;4.268;2023-08-12T05:42:36;13.30;;;10.80;;
25481;SDS011;13395;50.752;4.268;2023-08-12T05:45:02;15.20;;;11.18;;
25481;SDS011;13395;50.752;4.268;2023-08-12T05:47:29;14.38;;;10.77;;
25481;SDS011;13395;50.752;4.268;2023-08-12T05:49:54;14.98;;;10.85;;
25481;SDS011;13395;50.752;4.268;2023-08-12T05:52:20;14.48;;;11.10;;
25481;SDS011;13395;50.752;4.268;2023-08-12T05:54:46;15.75;;;11.55;;
25481;SDS011;13395;50.752;4.268;2023-08-12T05:57:11;14.65;;;11.13;;
25481;SDS011;13395;50.752;4.268;2023-08-12T05:59:37;17.63;;;12.77;;
25481;SDS011;13395;50.752;4.268;2023-08-12T06:02:02;12.48;;;11.18;;
25481;SDS011;13395;50.752;4.268;2023-08-12T06:04:28;16.83;;;11.77;;
25481;SDS011;13395;50.752;4.268;2023-08-12T06:06:54;14.18;;;11.18;;
25481;SDS011;13395;50.752;4.268;2023-08-12T06:09:20;19.92;;;11.90;;
25481;SDS011;13395;50.752;4.268;2023-08-12T06:11:46;14.13;;;10.50;;
25481;SDS011;13395;50.752;4.268;2023-08-12T06:14:12;15.45;;;10.95;;
25481;SDS011;13395;50.752;4.268;2023-08-12T06:16:38;14.32;;;10.88;;
25481;SDS011;13395;50.752;4.268;2023-08-12T06:19:03;14.82;;;11.73;;
25481;SDS011;13395;50.752;4.268;2023-08-12T06:21:29;11.70;;;10.45;;
25481;SDS011;13395;50.752;4.268;2023-08-12T06:23:55;16.45;;;11.23;;
25481;SDS011;13395;50.752;4.268;2023-08-12T06:26:20;12.57;;;9.57;;
25481;SDS011;13395;50.752;4.268;2023-08-12T06:28:46;11.40;;;10.20;;
25481;SDS011;13395;50.752;4.268;2023-08-12T06:31:12;17.40;;;10.20;;
25481;SDS011;13395;50.752;4.268;2023-08-12T06:33:38;9.70;;;8.68;;
25481;SDS011;13395;50.752;4.268;2023-08-12T06:36:03;9.57;;;8.52;;
25481;SDS011;13395;50.752;4.268;2023-08-12T06:38:29;9.88;;;8.40;;
25481;SDS011;13395;50.752;4.268;2023-08-12T06:40:55;11.52;;;8.50;;
25481;SDS011;13395;50.752;4.268;2023-08-12T06:43:20;10.43;;;8.18;;
25481;SDS011;13395;50.752;4.268;2023-08-12T06:45:46;8.57;;;7.70;;
25481;SDS011;13395;50.752;4.268;2023-08-12T06:48:11;9.40;;;7.90;;
25481;SDS011;13395;50.752;4.268;2023-08-12T06:50:37;8.38;;;7.10;;
25481;SDS011;13395;50.752;4.268;2023-08-12T06:53:02;6.90;;;5.80;;
25481;SDS011;13395;50.752;4.268;2023-08-12T06:55:28;8.18;;;7.32;;
25481;SDS011;13395;50.752;4.268;2023-08-12T06:57:54;9.30;;;6.53;;
25481;SDS011;13395;50.752;4.268;2023-08-12T07:00:19;3.47;;;2.50;;
25481;SDS011;13395;50.752;4.268;2023-08-12T07:02:45;1.63;;;1.05;;
25481;SDS011;13395;50.752;4.268;2023-08-12T07:05:11;4.82;;;1.33;;
25481;SDS011;13395;50.752;4.268;2023-08-12T07:07:36;3.30;;;1.05;;
25481;SDS011;13395;50.752;4.268;2023-08-12T07:10:02;3.13;;;0.80;;
25481;SDS011;13395;50.752;4.268;2023-08-12T07:12:29;2.28;;;0.68;;
25481;SDS011;13395;50.752;4.268;2023-08-12T07:14:55;6.18;;;0.77;;
25481;SDS011;13395;50.752;4.268;2023-08-12T07:17:20;2.15;;;0.80;;
25481;SDS011;13395;50.752;4.268;2023-08-12T07:19:47;5.35;;;1.10;;
25481;SDS011;13395;50.752;4.268;2023-08-12T07:22:12;2.42;;;0.90;;
25481;SDS011;13395;50.752;4.268;2023-08-12T07:24:38;4.07;;;1.10;;
25481;SDS011;13395;50.752;4.268;2023-08-12T07:27:03;5.82;;;2.20;;
25481;SDS011;13395;50.752;4.268;2023-08-12T07:29:29;3.22;;;1.58;;
25481;SDS011;13395;50.752;4.268;2023-08-12T07:31:55;11.55;;;3.30;;
25481;SDS011;13395;50.752;4.268;2023-08-12T07:34:21;4.50;;;2.17;;
25481;SDS011;13395;50.752;4.268;2023-08-12T07:36:46;3.85;;;1.92;;
25481;SDS011;13395;50.752;4.268;2023-08-12T07:39:12;3.75;;;2.08;;
25481;SDS011;13395;50.752;4.268;2023-08-12T07:41:38;3.00;;;2.15;;
25481;SDS011;13395;50.752;4.268;2023-08-12T07:44:04;3.92;;;1.45;;
25481;SDS011;13395;50.752;4.268;2023-08-12T07:46:30;4.60;;;2.03;;
25481;SDS011;13395;50.752;4.268;2023-08-12T07:48:56;2.03;;;1.15;;
25481;SDS011;13395;50.752;4.268;2023-08-12T07:51:22;5.05;;;1.63;;
25481;SDS011;13395;50.752;4.268;2023-08-12T07:53:47;6.20;;;1.88;;
25481;SDS011;13395;50.752;4.268;2023-08-12T07:56:13;2.50;;;1.45;;
25481;SDS011;13395;50.752;4.268;2023-08-12T07:58:39;2.88;;;1.67;;
25481;SDS011;13395;50.752;4.268;2023-08-12T08:01:04;2.03;;;0.93;;
25481;SDS011;13395;50.752;4.268;2023-08-12T08:03:30;2.55;;;1.10;;
25481;SDS011;13395;50.752;4.268;2023-08-12T08:05:56;2.28;;;1.00;;
25481;SDS011;13395;50.752;4.268;2023-08-12T08:08:21;3.13;;;1.08;;
25481;SDS011;13395;50.752;4.268;2023-08-12T08:10:47;1.73;;;0.90;;
25481;SDS011;13395;50.752;4.268;2023-08-12T08:13:13;2.28;;;0.90;;
25481;SDS011;13395;50.752;4.268;2023-08-12T08:15:38;2.65;;;1.00;;
25481;SDS011;13395;50.752;4.268;2023-08-12T08:18:04;1.90;;;0.80;;
25481;SDS011;13395;50.752;4.268;2023-08-12T08:20:30;2.97;;;1.20;;
25481;SDS011;13395;50.752;4.268;2023-08-12T08:22:55;3.95;;;0.95;;
25481;SDS011;13395;50.752;4.268;2023-08-12T08:25:21;1.05;;;0.70;;
25481;SDS011;13395;50.752;4.268;2023-08-12T08:27:47;1.45;;;0.80;;
25481;SDS011;13395;50.752;4.268;2023-08-12T08:30:13;2.00;;;0.73;;
25481;SDS011;13395;50.752;4.268;2023-08-12T08:32:38;2.63;;;0.70;;
25481;SDS011;13395;50.752;4.268;2023-08-12T08:35:04;1.77;;;0.73;;
25481;SDS011;13395;50.752;4.268;2023-08-12T08:37:30;1.33;;;0.60;;
25481;SDS011;13395;50.752;4.268;2023-08-12T08:39:56;3.20;;;1.08;;
25481;SDS011;13395;50.752;4.268;2023-08-12T08:42:21;4.30;;;0.80;;
25481;SDS011;13395;50.752;4.268;2023-08-12T08:44:50;1.65;;;0.70;;
25481;SDS011;13395;50.752;4.268;2023-08-12T08:47:19;2.47;;;1.00;;
25481;SDS011;13395;50.752;4.268;2023-08-12T08:49:50;2.70;;;1.00;;
25481;SDS011;13395;50.752;4.268;2023-08-12T08:52:15;1.92;;;1.00;;
25481;SDS011;13395;50.752;4.268;2023-08-12T08:54:42;3.55;;;1.25;;
25481;SDS011;13395;50.752;4.268;2023-08-12T08:57:08;3.13;;;1.08;;
25481;SDS011;13395;50.752;4.268;2023-08-12T08:59:34;2.88;;;0.82;;
25481;SDS011;13395;50.752;4.268;2023-08-12T09:01:59;4.03;;;1.30;;
25481;SDS011;13395;50.752;4.268;2023-08-12T09:04:25;2.22;;;1.08;;
25481;SDS011;13395;50.752;4.268;2023-08-12T09:06:52;4.95;;;1.23;;
25481;SDS011;13395;50.752;4.268;2023-08-12T09:09:19;3.40;;;1.08;;
25481;SDS011;13395;50.752;4.268;2023-08-12T09:11:47;2.85;;;1.08;;
25481;SDS011;13395;50.752;4.268;2023-08-12T09:14:13;2.78;;;1.20;;
25481;SDS011;13395;50.752;4.268;2023-08-12T09:16:39;3.95;;;1.35;;
25481;SDS011;13395;50.752;4.268;2023-08-12T09:19:05;5.38;;;1.52;;
25481;SDS011;13395;50.752;4.268;2023-08-12T09:21:31;5.53;;;1.02;;
25481;SDS011;13395;50.752;4.268;2023-08-12T09:23:56;3.55;;;1.20;;
25481;SDS011;13395;50.752;4.268;2023-08-12T09:26:28;3.17;;;1.20;;
25481;SDS011;13395;50.752;4.268;2023-08-12T09:28:54;3.75;;;1.38;;
25481;SDS011;13395;50.752;4.268;2023-08-12T09:31:26;7.35;;;1.13;;
25481;SDS011;13395;50.752;4.268;2023-08-12T09:33:53;4.82;;;1.23;;
25481;SDS011;13395;50.752;4.268;2023-08-12T09:36:23;2.83;;;1.30;;
25481;SDS011;13395;50.752;4.268;2023-08-12T09:38:49;6.00;;;1.30;;
25481;SDS011;13395;50.752;4.268;2023-08-12T09:41:15;8.35;;;1.30;;
25481;SDS011;13395;50.752;4.268;2023-08-12T09:43:41;5.03;;;1.40;;
25481;SDS011;13395;50.752;4.268;2023-08-12T09:46:10;4.68;;;1.90;;
25481;SDS011;13395;50.752;4.268;2023-08-12T09:48:37;3.72;;;1.50;;
25481;SDS011;13395;50.752;4.268;2023-08-12T09:51:03;2.75;;;1.90;;
25481;SDS011;13395;50.752;4.268;2023-08-12T09:53:29;4.25;;;1.60;;
25481;SDS011;13395;50.752;4.268;2023-08-12T09:55:55;3.20;;;1.83;;
25481;SDS011;13395;50.752;4.268;2023-08-12T09:58:25;3.83;;;1.52;;
25481;SDS011;13395;50.752;4.268;2023-08-12T10:00:54;4.70;;;1.30;;
25481;SDS011;13395;50.752;4.268;2023-08-12T10:03:20;2.72;;;1.30;;
25481;SDS011;13395;50.752;4.268;2023-08-12T10:05:47;3.00;;;1.15;;
25481;SDS011;13395;50.752;4.268;2023-08-12T10:08:13;6.85;;;1.80;;
25481;SDS011;13395;50.752;4.268;2023-08-12T10:10:39;3.55;;;1.15;;
25481;SDS011;13395;50.752;4.268;2023-08-12T10:13:05;8.30;;;1.20;;
25481;SDS011;13395;50.752;4.268;2023-08-12T10:15:32;3.20;;;1.00;;
25481;SDS011;13395;50.752;4.268;2023-08-12T10:18:00;2.50;;;1.10;;
25481;SDS011;13395;50.752;4.268;2023-08-12T10:20:26;3.35;;;0.80;;
25481;SDS011;13395;50.752;4.268;2023-08-12T10:22:54;2.15;;;0.88;;
25481;SDS011;13395;50.752;4.268;2023-08-12T10:25:20;1.63;;;0.93;;
25481;SDS011;13395;50.752;4.268;2023-08-12T10:27:47;3.50;;;1.10;;
25481;SDS011;13395;50.752;4.268;2023-08-12T10:30:13;3.63;;;1.10;;
25481;SDS011;13395;50.752;4.268;2023-08-12T10:32:39;3.95;;;0.80;;
25481;SDS011;13395;50.752;4.268;2023-08-12T10:35:05;6.35;;;1.45;;
25481;SDS011;13395;50.752;4.268;2023-08-12T10:37:32;3.35;;;0.90;;
25481;SDS011;13395;50.752;4.268;2023-08-12T10:39:59;2.30;;;0.90;;
25481;SDS011;13395;50.752;4.268;2023-08-12T10:42:39;6.82;;;1.38;;
25481;SDS011;13395;50.752;4.268;2023-08-12T10:45:12;4.50;;;1.17;;
25481;SDS011;13395;50.752;4.268;2023-08-12T10:47:43;6.18;;;1.20;;
25481;SDS011;13395;50.752;4.268;2023-08-12T10:50:30;4.32;;;1.33;;
25481;SDS011;13395;50.752;4.268;2023-08-12T10:52:56;2.33;;;1.02;;
25481;SDS011;13395;50.752;4.268;2023-08-12T10:55:23;6.57;;;1.33;;
25481;SDS011;13395;50.752;4.268;2023-08-12T10:57:50;6.35;;;1.27;;
25481;SDS011;13395;50.752;4.268;2023-08-12T11:00:20;3.72;;;1.00;;
25481;SDS011;13395;50.752;4.268;2023-08-12T11:02:53;3.42;;;1.10;;
25481;SDS011;13395;50.752;4.268;2023-08-12T11:05:24;3.67;;;1.30;;
25481;SDS011;13395;50.752;4.268;2023-08-12T11:08:00;4.20;;;1.00;;
25481;SDS011;13395;50.752;4.268;2023-08-12T11:10:31;6.93;;;1.10;;
25481;SDS011;13395;50.752;4.268;2023-08-12T11:12:58;2.90;;;0.95;;
25481;SDS011;13395;50.752;4.268;2023-08-12T11:15:38;6.80;;;1.40;;
25481;SDS011;13395;50.752;4.268;2023-08-12T11:18:13;3.88;;;0.93;;
25481;SDS011;13395;50.752;4.268;2023-08-12T11:20:41;4.50;;;1.13;;
25481;SDS011;13395;50.752;4.268;2023-08-12T11:23:07;5.18;;;1.42;;
25481;SDS011;13395;50.752;4.268;2023-08-12T11:25:34;4.22;;;1.45;;
25481;SDS011;13395;50.752;4.268;2023-08-12T11:28:01;2.80;;;1.10;;
25481;SDS011;13395;50.752;4.268;2023-08-12T11:30:27;3.97;;;1.60;;
25481;SDS011;13395;50.752;4.268;2023-08-12T11:32:53;2.90;;;1.10;;
25481;SDS011;13395;50.752;4.268;2023-08-12T11:35:20;2.67;;;1.02;;
25481;SDS011;13395;50.752;4.268;2023-08-12T11:37:50;2.55;;;1.40;;
25481;SDS011;13395;50.752;4.268;2023-08-12T11:40:20;5.60;;;1.63;;
25481;SDS011;13395;50.752;4.268;2023-08-12T11:42:47;2.90;;;1.60;;
25481;SDS011;13395;50.752;4.268;2023-08-12T11:45:15;6.22;;;1.70;;
25481;SDS011;13395;50.752;4.268;2023-08-12T11:47:42;3.58;;;2.05;;
25481;SDS011;13395;50.752;4.268;2023-08-12T11:50:09;5.55;;;2.22;;
25481;SDS011;13395;50.752;4.268;2023-08-12T11:52:36;3.97;;;2.40;;
25481;SDS011;13395;50.752;4.268;2023-08-12T11:55:03;7.20;;;2.20;;
25481;SDS011;13395;50.752;4.268;2023-08-12T11:57:33;3.20;;;1.90;;
25481;SDS011;13395;50.752;4.268;2023-08-12T12:00:05;6.93;;;2.20;;
25481;SDS011;13395;50.752;4.268;2023-08-12T12:02:39;5.68;;;1.85;;
25481;SDS011;13395;50.752;4.268;2023-08-12T12:05:15;4.30;;;2.00;;
25481;SDS011;13395;50.752;4.268;2023-08-12T12:07:41;4.22;;;1.70;;
25481;SDS011;13395;50.752;4.268;2023-08-12T12:10:07;4.18;;;1.90;;
25481;SDS011;13395;50.752;4.268;2023-08-12T12:12:34;5.72;;;2.25;;
25481;SDS011;13395;50.752;4.268;2023-08-12T12:15:01;5.53;;;1.48;;
25481;SDS011;13395;50.752;4.268;2023-08-12T12:17:27;2.70;;;1.10;;
25481;SDS011;13395;50.752;4.268;2023-08-12T12:19:57;2.70;;;1.02;;
25481;SDS011;13395;50.752;4.268;2023-08-12T12:22:27;4.03;;;1.50;;
25481;SDS011;13395;50.752;4.268;2023-08-12T12:24:54;3.75;;;1.42;;
25481;SDS011;13395;50.752;4.268;2023-08-12T12:27:22;3.67;;;1.15;;
25481;SDS011;13395;50.752;4.268;2023-08-12T12:29:49;4.85;;;1.25;;
25481;SDS011;13395;50.752;4.268;2023-08-12T12:32:17;4.03;;;1.55;;
25481;SDS011;13395;50.752;4.268;2023-08-12T12:34:44;3.53;;;1.30;;
25481;SDS011;13395;50.752;4.268;2023-08-12T12:37:11;5.38;;;1.08;;
25481;SDS011;13395;50.752;4.268;2023-08-12T12:39:38;2.58;;;1.17;;
25481;SDS011;13395;50.752;4.268;2023-08-12T12:42:04;3.80;;;1.27;;
25481;SDS011;13395;50.752;4.268;2023-08-12T12:44:30;6.47;;;1.15;;
25481;SDS011;13395;50.752;4.268;2023-08-12T12:46:55;2.80;;;1.08;;
25481;SDS011;13395;50.752;4.268;2023-08-12T12:49:21;4.05;;;1.00;;
25481;SDS011;13395;50.752;4.268;2023-08-12T12:51:47;3.42;;;0.90;;
25481;SDS011;13395;50.752;4.268;2023-08-12T12:54:13;3.28;;;1.38;;
25481;SDS011;13395;50.752;4.268;2023-08-12T12:56:38;4.28;;;1.30;;
25481;SDS011;13395;50.752;4.268;2023-08-12T12:59:04;5.38;;;1.45;;
25481;SDS011;13395;50.752;4.268;2023-08-12T13:01:30;4.15;;;1.10;;
25481;SDS011;13395;50.752;4.268;2023-08-12T13:03:56;3.38;;;1.08;;
25481;SDS011;13395;50.752;4.268;2023-08-12T13:06:22;5.38;;;1.33;;
25481;SDS011;13395;50.752;4.268;2023-08-12T13:08:48;3.67;;;1.00;;
25481;SDS011;13395;50.752;4.268;2023-08-12T13:11:14;3.92;;;0.90;;
25481;SDS011;13395;50.752;4.268;2023-08-12T13:13:40;2.05;;;1.00;;
25481;SDS011;13395;50.752;4.268;2023-08-12T13:16:06;5.43;;;1.30;;
25481;SDS011;13395;50.752;4.268;2023-08-12T13:18:33;2.83;;;1.50;;
25481;SDS011;13395;50.752;4.268;2023-08-12T13:20:59;7.80;;;1.30;;
25481;SDS011;13395;50.752;4.268;2023-08-12T13:23:24;5.60;;;1.17;;
25481;SDS011;13395;50.752;4.268;2023-08-12T13:25:50;4.30;;;1.00;;
25481;SDS011;13395;50.752;4.268;2023-08-12T13:28:16;5.50;;;1.48;;
25481;SDS011;13395;50.752;4.268;2023-08-12T13:30:41;4.63;;;1.40;;
25481;SDS011;13395;50.752;4.268;2023-08-12T13:33:07;3.85;;;1.15;;
25481;SDS011;13395;50.752;4.268;2023-08-12T13:35:33;4.03;;;1.00;;
25481;SDS011;13395;50.752;4.268;2023-08-12T13:37:59;6.28;;;1.20;;
25481;SDS011;13395;50.752;4.268;2023-08-12T13:40:24;2.88;;;1.17;;
25481;SDS011;13395;50.752;4.268;2023-08-12T13:42:50;6.18;;;1.30;;
25481;SDS011;13395;50.752;4.268;2023-08-12T13:45:16;3.50;;;1.33;;
25481;SDS011;13395;50.752;4.268;2023-08-12T13:47:41;7.20;;;1.65;;
25481;SDS011;13395;50.752;4.268;2023-08-12T13:50:07;5.40;;;1.48;;
25481;SDS011;13395;50.752;4.268;2023-08-12T13:52:33;5.95;;;1.30;;
25481;SDS011;13395;50.752;4.268;2023-08-12T13:54:59;4.68;;;1.65;;
25481;SDS011;13395;50.752;4.268;2023-08-12T13:57:24;3.97;;;0.95;;
25481;SDS011;13395;50.752;4.268;2023-08-12T13:59:50;7.72;;;1.60;;
25481;SDS011;13395;50.752;4.268;2023-08-12T14:02:16;5.20;;;1.13;;
25481;SDS011;13395;50.752;4.268;2023-08-12T14:04:42;5.10;;;1.27;;
25481;SDS011;13395;50.752;4.268;2023-08-12T14:07:07;3.65;;;1.13;;
25481;SDS011;13395;50.752;4.268;2023-08-12T14:09:33;6.72;;;1.13;;
25481;SDS011;13395;50.752;4.268;2023-08-12T14:11:59;6.05;;;1.17;;
25481;SDS011;13395;50.752;4.268;2023-08-12T14:14:25;4.53;;;1.17;;
25481;SDS011;13395;50.752;4.268;2023-08-12T14:16:54;3.10;;;1.30;;
25481;SDS011;13395;50.752;4.268;2023-08-12T14:19:20;2.85;;;1.10;;
25481;SDS011;13395;50.752;4.268;2023-08-12T14:21:45;3.60;;;1.00;;
25481;SDS011;13395;50.752;4.268;2023-08-12T14:24:11;5.88;;;1.20;;
25481;SDS011;13395;50.752;4.268;2023-08-12T14:26:38;4.40;;;1.42;;
25481;SDS011;13395;50.752;4.268;2023-08-12T14:29:04;3.75;;;1.00;;
25481;SDS011;13395;50.752;4.268;2023-08-12T14:31:30;7.88;;;1.63;;
25481;SDS011;13395;50.752;4.268;2023-08-12T14:33:55;30.10;;;10.23;;
25481;SDS011;13395;50.752;4.268;2023-08-12T14:36:21;33.60;;;8.82;;
25481;SDS011;13395;50.752;4.268;2023-08-12T14:38:46;4.47;;;1.20;;
25481;SDS011;13395;50.752;4.268;2023-08-12T14:41:12;4.63;;;1.30;;